createdAt,value
2022-11-02T00:02:36.830Z,14.10
2022-11-02T00:07:35.747Z,14.10
2022-11-02T00:12:34.738Z,14.20
2022-11-02T00:17:32.717Z,14.20
2022-11-02T00:22:30.713Z,14.30
2022-11-02T00:27:28.715Z,14.30
2022-11-02T00:32:26.666Z,14.30
2022-11-02T00:37:24.711Z,14.30
2022-11-02T00:42:22.769Z,14.30
2022-11-02T00:47:20.956Z,14.30
2022-11-02T00:52:21.851Z,14.20
2022-11-02T00:57:21.245Z,14.20
2022-11-02T01:02:19.842Z,14.20
2022-11-02T01:07:18.748Z,14.20
2022-11-02T01:12:16.734Z,14.20
2022-11-02T01:17:15.517Z,14.20
2022-11-02T01:22:16.805Z,14.10
2022-11-02T01:27:17.586Z,14.10
2022-11-02T01:32:16.045Z,14.00
2022-11-02T01:37:17.818Z,14.00
2022-11-02T01:42:18.630Z,13.90
2022-11-02T01:47:16.787Z,13.90
2022-11-02T01:52:14.657Z,13.90
2022-11-02T01:57:12.619Z,13.90
2022-11-02T02:02:10.948Z,14.00
2022-11-02T02:07:09.760Z,14.00
2022-11-02T02:12:07.790Z,14.00
2022-11-02T02:17:06.435Z,14.00
2022-11-02T02:22:06.044Z,14.00
2022-11-02T02:27:05.138Z,14.00
2022-11-02T02:32:03.794Z,14.00
2022-11-02T02:37:03.729Z,14.00
2022-11-02T02:42:01.805Z,14.00
2022-11-02T02:47:02.867Z,14.00
2022-11-02T02:52:01.230Z,14.00
2022-11-02T02:57:00.487Z,13.90
2022-11-02T03:01:58.842Z,13.80
2022-11-02T03:06:58.195Z,13.70
2022-11-02T03:11:57.376Z,13.60
2022-11-02T03:16:56.557Z,13.60
2022-11-02T03:21:55.193Z,13.50
2022-11-02T03:26:54.437Z,13.50
2022-11-02T03:31:52.855Z,13.40
2022-11-02T03:36:52.051Z,13.50
2022-11-02T03:41:51.922Z,13.50
2022-11-02T03:46:51.112Z,13.60
2022-11-02T03:51:53.382Z,13.70
2022-11-02T03:56:52.279Z,13.80
2022-11-02T04:01:52.272Z,13.80
2022-11-02T04:06:51.180Z,13.90
2022-11-02T04:11:49.773Z,13.80
2022-11-02T04:16:49.699Z,13.80
2022-11-02T04:21:48.076Z,13.70
2022-11-02T04:26:47.279Z,13.70
2022-11-02T04:31:47.893Z,13.70
2022-11-02T04:36:46.636Z,13.80
2022-11-02T04:42:01.835Z,13.80
2022-11-02T04:47:01.587Z,13.70
2022-11-02T04:52:00.138Z,13.70
2022-11-02T04:56:59.367Z,13.70
2022-11-02T05:01:58.312Z,13.60
2022-11-02T05:07:01.218Z,13.60
2022-11-02T05:11:57.757Z,13.60
2022-11-02T05:16:56.247Z,13.70
2022-11-02T05:21:55.250Z,13.70
2022-11-02T05:26:54.377Z,13.70
2022-11-02T05:31:53.279Z,13.80
2022-11-02T05:36:52.293Z,13.80
2022-11-02T05:41:51.237Z,13.80
2022-11-02T05:46:49.752Z,13.80
2022-11-02T05:51:47.760Z,13.80
2022-11-02T05:56:45.848Z,13.80
2022-11-02T06:01:43.850Z,13.80
2022-11-02T06:06:44.731Z,13.80
2022-11-02T06:11:42.815Z,13.80
2022-11-02T06:16:40.798Z,13.80
2022-11-02T06:21:40.282Z,13.80
2022-11-02T06:26:38.810Z,13.80
2022-11-02T06:31:36.916Z,13.70
2022-11-02T06:36:34.981Z,13.70
2022-11-02T06:41:32.895Z,13.60
2022-11-02T06:46:30.958Z,13.60
2022-11-02T06:51:28.878Z,13.60
2022-11-02T06:56:27.027Z,13.70
2022-11-02T07:01:25.918Z,13.80
2022-11-02T07:06:24.870Z,13.80
2022-11-02T07:11:22.860Z,13.80
2022-11-02T07:16:20.833Z,13.90
2022-11-02T07:26:16.881Z,14.10
2022-11-02T07:31:14.903Z,14.10
2022-11-02T07:36:13.003Z,14.20
2022-11-02T07:41:11.887Z,14.20
2022-11-02T07:46:10.168Z,14.30
2022-11-02T07:51:08.924Z,14.40
2022-11-02T07:56:06.901Z,14.30
2022-11-02T08:01:05.091Z,14.20
2022-11-02T08:06:03.869Z,14.20
2022-11-02T08:11:02.109Z,14.20
2022-11-02T08:16:00.893Z,14.20
2022-11-02T08:20:58.994Z,14.20
2022-11-02T08:25:58.091Z,14.10
2022-11-02T08:30:56.911Z,14.10
2022-11-02T08:35:55.087Z,14.10
2022-11-02T08:40:52.897Z,14.10
2022-11-02T08:50:51.168Z,14.10
2022-11-02T08:55:50.087Z,14.20
2022-11-02T09:00:47.928Z,14.20
2022-11-02T09:05:45.876Z,14.40
2022-11-02T09:10:43.867Z,14.50
2022-11-02T09:15:42.073Z,14.50
2022-11-02T09:20:41.061Z,14.40
2022-11-02T09:25:39.150Z,14.40
2022-11-02T09:30:37.980Z,14.40
2022-11-02T09:35:35.967Z,14.50
2022-11-02T09:40:33.865Z,14.60
2022-11-02T09:45:31.922Z,14.70
2022-11-02T09:50:30.010Z,14.80
2022-11-02T09:55:27.898Z,14.90
2022-11-02T10:00:26.064Z,15.00
2022-11-02T10:05:23.991Z,15.10
2022-11-02T10:10:21.975Z,15.30
2022-11-02T10:15:19.950Z,15.30
2022-11-02T10:20:18.208Z,15.30
2022-11-02T10:25:17.160Z,15.30
2022-11-02T10:30:15.979Z,15.30
2022-11-02T10:40:14.014Z,15.30
2022-11-02T10:45:11.949Z,15.30
2022-11-02T10:50:12.467Z,15.20
2022-11-02T10:55:09.981Z,15.30
2022-11-02T11:00:07.985Z,15.40
2022-11-02T11:05:05.954Z,15.40
2022-11-02T11:10:04.190Z,15.50
2022-11-02T11:20:07.192Z,15.60
2022-11-02T11:25:04.963Z,15.60
2022-11-02T11:30:02.983Z,15.60
2022-11-02T11:35:00.963Z,15.80
2022-11-02T11:39:58.936Z,16.20
2022-11-02T11:44:57.121Z,16.60
2022-11-02T11:50:11.346Z,16.70
2022-11-02T11:54:55.065Z,16.70
2022-11-02T11:59:53.137Z,16.40
2022-11-02T12:04:51.030Z,16.10
2022-11-02T12:09:49.237Z,16.00
2022-11-02T12:14:48.225Z,16.00
2022-11-02T12:19:46.159Z,16.10
2022-11-02T12:24:44.198Z,16.20
2022-11-02T12:29:42.288Z,16.50
2022-11-02T12:34:41.220Z,16.80
2022-11-02T12:39:40.231Z,16.90
2022-11-02T12:44:39.085Z,16.80
2022-11-02T12:49:37.025Z,16.60
2022-11-02T12:54:40.532Z,16.70
2022-11-02T12:59:35.049Z,16.60
2022-11-02T13:04:36.963Z,16.40
2022-11-02T13:09:33.068Z,16.20
2022-11-02T13:14:31.269Z,16.30
2022-11-02T13:19:30.263Z,16.40
2022-11-02T13:24:31.864Z,16.40
2022-11-02T13:29:29.374Z,16.60
2022-11-02T13:34:28.027Z,16.90
2022-11-02T13:39:26.299Z,17.30
2022-11-02T13:44:25.131Z,17.90
2022-11-02T13:49:23.131Z,17.90
2022-11-02T13:54:21.142Z,17.90
2022-11-02T13:59:19.075Z,18.20
2022-11-02T14:04:17.333Z,18.40
2022-11-02T14:09:16.281Z,18.40
2022-11-02T14:14:15.324Z,18.10
2022-11-02T14:19:18.895Z,17.70
2022-11-02T14:24:14.140Z,17.60
2022-11-02T14:29:12.024Z,17.50
2022-11-02T14:34:10.322Z,17.20
2022-11-02T14:39:09.404Z,17.00
2022-11-02T14:44:08.376Z,16.90
2022-11-02T14:49:07.152Z,16.90
2022-11-02T14:54:05.350Z,16.90
2022-11-02T14:59:04.051Z,16.80
2022-11-02T15:04:02.136Z,16.70
2022-11-02T15:09:00.303Z,16.50
2022-11-02T15:13:58.164Z,16.40
2022-11-02T15:18:56.365Z,16.20
2022-11-02T15:23:55.321Z,16.00
2022-11-02T15:28:54.312Z,15.90
2022-11-02T15:33:52.312Z,15.70
2022-11-02T15:38:51.168Z,15.60
2022-11-02T15:43:49.461Z,15.40
2022-11-02T15:48:49.315Z,15.20
2022-11-02T15:53:47.350Z,15.10
2022-11-02T15:58:45.087Z,15.00
2022-11-02T16:09:31.212Z,14.70
2022-11-02T16:14:29.262Z,14.70
2022-11-02T16:19:27.300Z,14.60
2022-11-02T16:24:26.286Z,14.50
2022-11-02T16:29:24.210Z,14.50
2022-11-02T16:34:22.596Z,14.40
2022-11-02T16:39:21.121Z,14.30
2022-11-02T16:44:19.116Z,14.20
2022-11-02T16:49:17.187Z,14.10
2022-11-02T16:54:18.297Z,14.10
2022-11-02T16:59:16.233Z,14.00
2022-11-02T17:04:14.245Z,14.00
2022-11-02T17:09:12.207Z,14.00
2022-11-02T17:14:10.370Z,13.90
2022-11-02T17:19:13.176Z,13.90
2022-11-02T17:24:09.327Z,13.80
2022-11-02T17:29:07.273Z,13.80
2022-11-02T17:34:05.223Z,13.70
2022-11-02T17:39:05.116Z,13.60
2022-11-02T17:44:03.324Z,13.60
2022-11-02T17:49:01.229Z,13.50
2022-11-02T17:53:59.457Z,13.50
2022-11-02T17:58:58.229Z,13.50
2022-11-02T18:03:56.496Z,13.40
2022-11-02T18:08:55.235Z,13.30
2022-11-02T18:13:53.349Z,13.30
2022-11-02T18:18:51.195Z,13.20
2022-11-02T18:23:49.213Z,13.20
2022-11-02T18:28:47.237Z,13.10
2022-11-02T18:33:45.383Z,13.10
2022-11-02T18:38:43.389Z,13.00
2022-11-02T18:43:41.353Z,13.00
2022-11-02T18:48:39.334Z,13.00
2022-11-02T18:53:37.328Z,13.00
2022-11-02T18:58:35.294Z,13.00
2022-11-02T19:03:33.401Z,13.00
2022-11-02T19:08:32.298Z,13.00
2022-11-02T19:13:30.229Z,12.90
2022-11-02T19:18:28.270Z,12.90
2022-11-02T19:23:26.288Z,12.90
2022-11-02T19:28:24.193Z,12.90
2022-11-02T19:33:22.456Z,12.90
2022-11-02T19:38:20.423Z,12.80
2022-11-02T19:43:18.234Z,12.80
2022-11-02T19:48:16.242Z,12.80
2022-11-02T19:53:14.334Z,12.80
2022-11-02T19:58:12.290Z,12.80
2022-11-02T20:03:10.297Z,12.70
2022-11-02T20:08:09.401Z,12.70
2022-11-02T20:13:07.358Z,12.70
2022-11-02T20:18:18.206Z,12.60
2022-11-02T20:23:05.471Z,12.60
2022-11-02T20:28:03.587Z,12.60
2022-11-02T20:33:02.391Z,12.60
2022-11-02T20:38:00.340Z,12.60
2022-11-02T20:42:58.274Z,12.50
2022-11-02T20:47:56.353Z,12.50
2022-11-02T20:52:54.468Z,12.50
2022-11-02T20:57:52.496Z,12.50
2022-11-02T21:02:51.347Z,12.50
2022-11-02T21:07:49.383Z,12.50
2022-11-02T21:12:47.354Z,12.50
2022-11-02T21:17:45.366Z,12.50
2022-11-02T21:22:43.373Z,12.60
2022-11-02T21:27:41.493Z,12.60
2022-11-02T21:32:40.439Z,12.60
2022-11-02T21:37:38.494Z,12.60
2022-11-02T21:42:36.381Z,12.60
2022-11-02T21:47:34.476Z,12.60
2022-11-02T21:52:32.270Z,12.70
2022-11-02T21:57:30.440Z,12.70
2022-11-02T22:02:28.333Z,12.70
2022-11-02T22:07:26.460Z,12.70
2022-11-02T22:12:25.414Z,12.80
2022-11-02T22:17:47.966Z,12.80
2022-11-02T22:22:23.334Z,12.90
2022-11-02T22:27:21.436Z,12.90
2022-11-02T22:32:19.418Z,12.90
2022-11-02T22:37:17.408Z,12.90
2022-11-02T22:42:15.651Z,12.90
2022-11-02T22:47:14.420Z,12.90
2022-11-02T22:52:12.589Z,12.90
2022-11-02T22:57:11.424Z,12.90
2022-11-02T23:02:09.493Z,12.90
2022-11-02T23:07:08.611Z,12.90
2022-11-02T23:12:07.432Z,12.80
2022-11-02T23:17:05.415Z,12.80
2022-11-02T23:22:03.587Z,12.70
2022-11-02T23:27:01.592Z,12.70
2022-11-02T23:32:00.581Z,12.60
2022-11-02T23:36:58.422Z,12.60
2022-11-02T23:41:56.541Z,12.50
2022-11-02T23:46:54.470Z,12.50
2022-11-02T23:51:52.539Z,12.40
2022-11-02T23:56:50.537Z,12.40
